createdAt,value
2019-01-16T00:01:45.107Z,97.20
2019-01-16T00:04:15.178Z,97.00
2019-01-16T00:12:26.316Z,97.49
2019-01-16T00:20:29.961Z,98.43
2019-01-16T00:23:08.646Z,99.06
2019-01-16T00:26:02.304Z,99.51
2019-01-16T00:28:41.465Z,99.67
2019-01-16T00:31:13.393Z,100.00
2019-01-16T00:33:57.320Z,99.60
2019-01-16T00:39:16.816Z,99.43
2019-01-16T00:44:40.304Z,99.92
2019-01-16T00:50:14.328Z,99.40
2019-01-16T00:52:53.626Z,98.93
2019-01-16T00:55:28.240Z,99.39
2019-01-16T01:00:38.291Z,99.72
2019-01-16T01:03:14.724Z,99.67
2019-01-16T01:06:04.813Z,99.79
2019-01-16T01:11:16.864Z,99.45
2019-01-16T01:13:54.740Z,99.34
2019-01-16T01:16:23.835Z,99.33
2019-01-16T01:18:53.686Z,99.35
2019-01-16T01:21:22.817Z,99.37
2019-01-16T01:26:43.937Z,100.00
2019-01-16T01:32:13.793Z,100.00
2019-01-16T01:35:11.635Z,100.00
2019-01-16T01:37:59.564Z,100.00
2019-01-16T01:40:30.550Z,100.00
2019-01-16T01:43:03.684Z,100.00
2019-01-16T01:45:39.228Z,100.00
2019-01-16T01:48:16.675Z,100.00
2019-01-16T01:50:57.562Z,100.00
2019-01-16T01:53:40.177Z,100.00
2019-01-16T01:56:15.803Z,99.98
2019-01-16T02:01:45.444Z,100.00
2019-01-16T02:07:13.103Z,100.00
2019-01-16T02:12:27.327Z,99.95
2019-01-16T02:15:19.658Z,99.65
2019-01-16T02:17:56.187Z,98.99
2019-01-16T02:43:07.775Z,99.97
2019-01-16T02:45:37.140Z,99.31
2019-01-16T02:48:18.049Z,99.38
2019-01-16T02:53:40.960Z,99.57
2019-01-16T02:56:20.921Z,99.50
2019-01-16T02:58:53.485Z,99.06
2019-01-16T03:01:24.537Z,99.20
2019-01-16T03:04:00.045Z,99.93
2019-01-16T03:06:30.107Z,100.00
2019-01-16T03:14:30.769Z,100.00
2019-01-16T03:17:05.356Z,100.00
2019-01-16T03:19:39.709Z,99.68
2019-01-16T03:22:13.697Z,99.60
2019-01-16T03:24:59.511Z,99.92
2019-01-16T03:27:30.943Z,100.00
2019-01-16T03:30:01.734Z,100.00
2019-01-16T03:32:31.742Z,100.00
2019-01-16T03:37:40.884Z,100.00
2019-01-16T03:43:00.776Z,100.00
2019-01-16T03:45:29.854Z,100.00
2019-01-16T03:48:24.528Z,100.00
2019-01-16T03:51:01.736Z,100.00
2019-01-16T03:53:33.484Z,100.00
2019-01-16T04:02:00.102Z,100.00
2019-01-16T04:04:29.163Z,100.00
2019-01-16T04:06:58.645Z,100.00
2019-01-16T04:09:33.302Z,100.00
2019-01-16T04:15:09.353Z,100.00
2019-01-16T04:20:21.592Z,100.00
2019-01-16T04:28:19.970Z,100.00
2019-01-16T04:30:55.052Z,100.00
2019-01-16T04:33:29.666Z,100.00
2019-01-16T04:38:37.892Z,100.00
2019-01-16T04:41:21.840Z,100.00
2019-01-16T04:43:58.356Z,100.00
2019-01-16T04:46:37.399Z,100.00
2019-01-16T04:49:11.969Z,100.00
2019-01-16T04:54:18.719Z,100.00
2019-01-16T05:05:26.503Z,100.00
2019-01-16T05:10:43.222Z,100.00
2019-01-16T05:27:28.030Z,100.00
2019-01-16T05:32:37.112Z,100.00
2019-01-16T05:43:26.396Z,100.00
2019-01-16T05:46:16.219Z,100.00
2019-01-16T05:48:46.583Z,100.00
2019-01-16T05:51:30.581Z,100.00
2019-01-16T05:54:24.996Z,100.00
2019-01-16T05:59:49.255Z,100.00
2019-01-16T06:02:21.044Z,100.00
2019-01-16T06:05:23.468Z,100.00
2019-01-16T06:08:06.436Z,100.00
2019-01-16T06:10:40.990Z,100.00
2019-01-16T06:15:56.042Z,100.00
2019-01-16T06:18:26.945Z,100.00
2019-01-16T06:24:14.400Z,100.00
2019-01-16T06:27:02.821Z,100.00
2019-01-16T06:29:31.938Z,100.00
2019-01-16T06:34:58.656Z,100.00
2019-01-16T06:43:26.856Z,100.00
2019-01-16T06:45:58.251Z,100.00
2019-01-16T06:48:33.679Z,100.00
2019-01-16T06:53:45.364Z,100.00
2019-01-16T06:56:17.692Z,100.00
2019-01-16T06:58:49.368Z,100.00
2019-01-16T07:01:31.020Z,100.00
2019-01-16T07:04:03.169Z,100.00
2019-01-16T07:09:48.704Z,100.00
2019-01-16T07:15:04.811Z,100.00
2019-01-16T07:17:39.449Z,100.00
2019-01-16T07:20:23.491Z,100.00
2019-01-16T07:22:52.553Z,100.00
2019-01-16T07:25:47.946Z,100.00
2019-01-16T07:28:18.954Z,100.00
2019-01-16T07:33:58.564Z,100.00
2019-01-16T07:36:32.679Z,100.00
2019-01-16T07:42:27.216Z,100.00
2019-01-16T07:44:56.307Z,100.00
2019-01-16T07:47:36.118Z,100.00
2019-01-16T07:50:08.307Z,100.00
2019-01-16T07:52:41.948Z,100.00
2019-01-16T07:55:13.031Z,100.00
2019-01-16T08:00:50.255Z,99.47
2019-01-16T08:03:24.807Z,98.65
2019-01-16T08:08:56.898Z,97.68
2019-01-16T08:19:50.626Z,94.69
2019-01-16T08:22:25.974Z,94.19
2019-01-16T08:24:55.726Z,94.14
2019-01-16T08:27:30.546Z,92.91
2019-01-16T08:35:38.224Z,92.58
2019-01-16T08:38:32.615Z,92.44
2019-01-16T08:41:14.731Z,91.78
2019-01-16T08:46:25.958Z,90.48
2019-01-16T08:51:43.683Z,87.82
2019-01-16T08:54:15.106Z,88.11
2019-01-16T08:56:45.619Z,87.37
2019-01-16T08:59:36.838Z,86.86
2019-01-16T09:02:21.312Z,87.24
2019-01-16T09:04:52.832Z,75.74
2019-01-16T09:07:25.756Z,70.69
2019-01-16T09:09:55.686Z,65.10
2019-01-16T09:15:34.744Z,50.36
2019-01-16T09:18:01.323Z,48.01
2019-01-16T09:20:40.088Z,49.61
2019-01-16T09:28:48.142Z,53.83
2019-01-16T09:31:27.168Z,51.32
2019-01-16T09:34:02.525Z,42.36
2019-01-16T09:36:34.251Z,41.13
2019-01-16T09:39:08.148Z,35.49
2019-01-16T09:41:50.114Z,48.01
2019-01-16T09:50:02.964Z,34.98
2019-01-16T09:52:38.150Z,49.17
2019-01-16T09:58:03.765Z,41.52
2019-01-16T10:03:15.351Z,51.75
2019-01-16T10:08:41.238Z,43.26
2019-01-16T10:11:10.291Z,46.09
2019-01-16T10:13:47.637Z,37.89
2019-01-16T10:18:55.847Z,33.99
2019-01-16T10:21:34.435Z,34.21
2019-01-16T10:24:05.643Z,26.73
2019-01-16T10:26:37.730Z,32.30
2019-01-16T10:32:01.281Z,36.08
2019-01-16T10:34:37.274Z,36.63
2019-01-16T10:37:13.438Z,35.38
2019-01-16T10:39:55.689Z,44.81
2019-01-16T10:42:29.698Z,30.09
2019-01-16T10:45:05.759Z,32.31
2019-01-16T10:47:34.308Z,34.42
2019-01-16T10:50:02.836Z,31.42
2019-01-16T10:52:45.237Z,30.73
2019-01-16T10:58:16.389Z,36.79
2019-01-16T11:00:47.559Z,38.82
2019-01-16T11:06:12.662Z,40.44
2019-01-16T11:08:58.094Z,40.34
2019-01-16T11:11:26.985Z,39.19
2019-01-16T11:16:58.345Z,37.79
2019-01-16T11:19:32.302Z,35.95
2019-01-16T11:22:06.518Z,38.48
2019-01-16T11:24:40.550Z,36.47
2019-01-16T11:27:29.789Z,35.69
2019-01-16T11:30:06.234Z,33.64
2019-01-16T11:32:34.750Z,30.08
2019-01-16T11:35:19.192Z,32.25
2019-01-16T11:41:01.019Z,34.37
2019-01-16T11:46:32.455Z,30.21
2019-01-16T11:49:11.539Z,31.40
2019-01-16T11:51:45.914Z,32.02
2019-01-16T11:54:20.033Z,29.31
2019-01-16T11:56:58.458Z,31.18
2019-01-16T11:59:34.317Z,30.17
2019-01-16T12:02:23.179Z,26.48
2019-01-16T12:04:51.723Z,33.30
2019-01-16T12:07:24.933Z,33.66
2019-01-16T12:13:02.773Z,39.04
2019-01-16T12:15:37.716Z,35.57
2019-01-16T12:18:23.206Z,33.85
2019-01-16T12:21:03.226Z,33.81
2019-01-16T12:26:30.582Z,42.50
2019-01-16T12:32:00.798Z,42.92
2019-01-16T12:37:38.151Z,42.09
2019-01-16T12:40:12.250Z,43.71
2019-01-16T12:42:45.761Z,45.42
2019-01-16T12:45:14.277Z,45.41
2019-01-16T12:47:45.291Z,44.11
2019-01-16T12:50:15.293Z,45.59
2019-01-16T12:52:54.743Z,45.94
2019-01-16T12:58:26.442Z,45.27
2019-01-16T13:00:57.709Z,45.86
2019-01-16T13:03:28.771Z,43.77
2019-01-16T13:09:00.349Z,41.68
2019-01-16T13:11:32.658Z,39.94
2019-01-16T13:14:21.990Z,40.08
2019-01-16T13:16:53.074Z,42.25
2019-01-16T13:19:23.074Z,42.39
2019-01-16T13:21:57.031Z,42.98
2019-01-16T13:33:20.470Z,40.02
2019-01-16T13:35:54.792Z,40.40
2019-01-16T13:50:27.710Z,40.36
2019-01-16T13:52:57.543Z,39.83
2019-01-16T13:55:29.814Z,39.72
2019-01-16T13:58:10.551Z,41.47
2019-01-16T14:00:39.097Z,43.74
2019-01-16T14:03:23.648Z,43.79
2019-01-16T14:05:58.743Z,42.72
2019-01-16T14:08:29.075Z,41.87
2019-01-16T14:10:57.633Z,43.62
2019-01-16T14:13:36.059Z,37.97
2019-01-16T14:16:23.684Z,41.00
2019-01-16T14:19:11.887Z,41.66
2019-01-16T14:21:46.244Z,43.74
2019-01-16T14:24:16.753Z,41.77
2019-01-16T14:26:45.263Z,42.58
2019-01-16T14:32:26.110Z,44.72
2019-01-16T14:44:11.745Z,47.96
2019-01-16T14:46:40.617Z,48.46
2019-01-16T14:52:10.419Z,49.01
2019-01-16T14:57:50.840Z,48.89
2019-01-16T15:00:31.073Z,50.72
2019-01-16T15:02:59.575Z,48.87
2019-01-16T15:05:38.141Z,50.71
2019-01-16T15:08:20.510Z,51.88
2019-01-16T15:10:59.016Z,52.42
2019-01-16T15:13:31.067Z,52.84
2019-01-16T15:19:15.030Z,50.34
2019-01-16T15:28:03.386Z,58.59
2019-01-16T15:31:03.318Z,58.85
2019-01-16T15:33:38.507Z,61.27
2019-01-16T15:36:08.598Z,56.46
2019-01-16T15:38:45.844Z,62.77
2019-01-16T15:44:16.891Z,65.66
2019-01-16T15:47:10.019Z,68.28
2019-01-16T15:50:05.982Z,69.12
2019-01-16T15:52:41.127Z,67.66
2019-01-16T15:55:10.630Z,66.77
2019-01-16T15:57:50.888Z,68.98
2019-01-16T16:00:19.435Z,69.07
2019-01-16T16:12:32.998Z,67.63
2019-01-16T16:15:10.876Z,68.25
2019-01-16T16:17:40.147Z,67.03
2019-01-16T16:23:31.900Z,72.60
2019-01-16T16:26:22.603Z,70.90
2019-01-16T16:29:04.210Z,73.89
2019-01-16T16:31:34.272Z,72.95
2019-01-16T16:34:18.575Z,77.20
2019-01-16T16:36:52.672Z,76.48
2019-01-16T16:42:29.726Z,79.86
2019-01-16T16:45:03.600Z,80.59
2019-01-16T16:47:38.586Z,81.09
2019-01-16T16:50:10.069Z,80.90
2019-01-16T16:55:36.607Z,80.43
2019-01-16T16:58:07.546Z,81.30
2019-01-16T17:03:36.094Z,80.58
2019-01-16T17:06:27.398Z,81.04
2019-01-16T17:09:35.140Z,81.34
2019-01-16T17:12:33.395Z,75.74
2019-01-16T17:18:15.364Z,78.61
2019-01-16T17:23:45.612Z,80.72
2019-01-16T17:29:31.416Z,82.13
2019-01-16T17:32:16.300Z,81.58
2019-01-16T17:34:54.723Z,82.84
2019-01-16T17:37:46.361Z,82.12
2019-01-16T17:40:27.633Z,82.70
2019-01-16T17:43:12.552Z,85.30
2019-01-16T17:45:46.680Z,84.79
2019-01-16T17:51:38.715Z,84.54
2019-01-16T17:54:19.798Z,85.83
2019-01-16T17:56:53.992Z,85.32
2019-01-16T18:02:34.410Z,86.04
2019-01-16T18:05:32.041Z,86.62
2019-01-16T18:08:05.306Z,85.56
2019-01-16T18:16:48.345Z,84.37
2019-01-16T18:19:49.898Z,88.03
2019-01-16T18:22:24.045Z,90.32
2019-01-16T18:25:27.079Z,89.85
2019-01-16T18:28:09.308Z,85.85
2019-01-16T18:33:37.986Z,85.98
2019-01-16T18:36:35.787Z,87.26
2019-01-16T18:39:07.194Z,88.59
2019-01-16T18:44:35.013Z,89.59
2019-01-16T18:47:11.935Z,88.52
2019-01-16T18:49:48.407Z,88.09
2019-01-16T18:52:36.749Z,88.08
2019-01-16T18:58:44.646Z,86.49
2019-01-16T19:01:44.758Z,86.87
2019-01-16T19:04:23.354Z,86.58
2019-01-16T19:09:51.957Z,84.44
2019-01-16T19:12:37.109Z,85.54
2019-01-16T19:15:16.279Z,85.74
2019-01-16T19:17:46.647Z,87.26
2019-01-16T19:20:25.959Z,86.29
2019-01-16T19:22:59.338Z,85.86
2019-01-16T19:25:37.053Z,84.25
2019-01-16T19:31:37.099Z,79.95
2019-01-16T19:34:10.051Z,78.22
2019-01-16T19:36:39.070Z,76.07
2019-01-16T19:42:37.426Z,75.95
2019-01-16T19:45:07.341Z,76.58
2019-01-16T19:47:52.653Z,76.83
2019-01-16T19:50:26.656Z,77.15
2019-01-16T19:53:04.749Z,77.20
2019-01-16T19:55:33.496Z,77.57
2019-01-16T19:58:25.930Z,78.94
2019-01-16T20:01:09.714Z,78.96
2019-01-16T20:03:40.077Z,79.51
2019-01-16T20:06:25.475Z,80.14
2019-01-16T20:09:13.371Z,77.51
2019-01-16T20:11:42.796Z,80.33
2019-01-16T20:14:13.251Z,80.01
2019-01-16T20:16:46.040Z,80.88
2019-01-16T20:22:12.766Z,80.20
2019-01-16T20:24:46.953Z,79.53
2019-01-16T20:30:17.423Z,76.96
2019-01-16T20:32:47.453Z,76.20
2019-01-16T20:35:25.470Z,74.98
2019-01-16T20:38:12.714Z,76.41
2019-01-16T20:40:41.241Z,76.90
2019-01-16T20:43:29.086Z,76.53
2019-01-16T20:46:03.909Z,75.15
2019-01-16T20:48:33.000Z,75.65
2019-01-16T20:51:04.318Z,76.10
2019-01-16T20:53:38.662Z,77.04
2019-01-16T20:56:17.818Z,75.93
2019-01-16T20:58:53.926Z,76.18
2019-01-16T21:01:34.131Z,76.13
2019-01-16T21:04:08.183Z,76.23
2019-01-16T21:06:42.765Z,75.99
2019-01-16T21:09:23.984Z,74.78
2019-01-16T21:15:05.597Z,73.75
2019-01-16T21:17:40.964Z,72.45
2019-01-16T21:23:07.525Z,71.00
2019-01-16T21:25:38.438Z,70.52
2019-01-16T21:28:11.246Z,70.72
2019-01-16T21:30:44.848Z,70.59
2019-01-16T21:33:43.522Z,70.15
2019-01-16T21:36:52.855Z,70.96
2019-01-16T21:39:22.464Z,70.63
2019-01-16T21:41:51.938Z,69.87
2019-01-16T21:44:29.663Z,69.70
2019-01-16T21:47:04.224Z,69.89
2019-01-16T21:49:51.618Z,69.44
2019-01-16T21:52:26.016Z,69.98
2019-01-16T21:55:18.517Z,70.31
2019-01-16T21:57:52.737Z,69.86
2019-01-16T22:00:26.914Z,70.42
2019-01-16T22:03:01.196Z,69.57
2019-01-16T22:05:32.209Z,69.90
2019-01-16T22:08:06.307Z,70.58
2019-01-16T22:10:54.454Z,70.02
2019-01-16T22:13:35.745Z,68.46
2019-01-16T22:16:09.699Z,67.90
2019-01-16T22:18:57.303Z,67.87
2019-01-16T22:21:25.828Z,67.88
2019-01-16T22:26:55.070Z,68.09
2019-01-16T22:29:37.564Z,68.07
2019-01-16T22:32:18.982Z,68.94
2019-01-16T22:37:53.081Z,68.11
2019-01-16T22:40:31.918Z,67.87
2019-01-16T22:46:09.991Z,67.21
2019-01-16T22:48:52.875Z,66.86
2019-01-16T22:51:26.315Z,67.10
2019-01-16T22:56:56.045Z,67.44
2019-01-16T22:59:34.019Z,67.45
2019-01-16T23:02:05.039Z,67.08
2019-01-16T23:04:46.953Z,67.25
2019-01-16T23:07:55.531Z,67.25
2019-01-16T23:13:21.271Z,67.82
2019-01-16T23:15:51.096Z,67.87
2019-01-16T23:18:24.296Z,67.74
2019-01-16T23:20:58.491Z,68.71
2019-01-16T23:23:42.298Z,69.63
2019-01-16T23:26:11.546Z,69.88
2019-01-16T23:34:55.167Z,71.04
2019-01-16T23:37:35.402Z,71.52
2019-01-16T23:40:04.219Z,72.03
2019-01-16T23:42:38.247Z,72.09
2019-01-16T23:45:07.726Z,70.97
2019-01-16T23:47:40.676Z,70.35
2019-01-16T23:50:34.533Z,67.45
2019-01-16T23:53:04.748Z,66.26
2019-01-16T23:55:45.981Z,66.72
2019-01-16T23:58:25.606Z,66.64
